Aérodrome :







RETROUVEZ-NOUS SUR...

 
LOGIN :

S'inscrire | Disclaimer

   EN    FR    IT 

 









Légende :    VFR   VFR Marginal   IFR   IFR Intensif   IFR Très Intensif
Visi : 
Plafond : 
>= 8 km
>= 3000ft
5 à 8 km
1000 à 3000 ft
1500m à 5 km
500 à 1000 ft
800 à 1500m
200 à 500 ft
< 800m
< 200 ft
Symboles :   Orages  Brouillard  Fortes neiges  Fortes précipitations  Vent > 20 kt






- Altitude de l'aérodrome : 215 ft
- Code IATA : XGR


CYLU - Kangiqsualujjuaq (Georges River)

DERNIER METAR :
  • 242100Z 14005KT 15SM FEW023 FEW029 M23/M28 A3010 RMK SC1SC1 SC TR SC TR SLP205

METARs EXPIRÉS :
  • 242000Z 16009KT 15SM FEW024 FEW036 M21/M26 A3011 RMK SC1SC1 SC TR SLP206
  • 241900Z 14006KT 15SM FEW021 FEW037 M22/M27 A3012 RMK SC1SC1 SC TR SC TR SLP212

TAF N/A



MET'MAP, la Météo Aéronautique d'un coup d'oeil ! - Copyright ORBIFLY Décembre 2007 - Disclaimer

ORBIFLY MET'MAP TEAM :

Programmation & Développement : Alexandra Zaïnal
Sur une idée originale de : Baudouin d'Aumeries
Assistance à la programmation : Marc-Olivier Méhu
Soutien technique & logistique : Manuel Goepfert

Contact : metmap@orbifly.com




SOURCES & CREDITS :

   NOAA